Terminal Aerodrome Forecast
Issued by NWS Lake Charles, LA

Home | Current Version | Previous Version | Text Only | Print | Product List | Glossary On
Versions: 1 2 3 4 5 6 7 8 9 10 11 12 13 14 15 16 17 18 19
000
FTUS44 KLCH 221139
TAFLCH
TAF
KLCH 221139Z 2212/2312 17006KT P6SM VCSH BKN006 OVC020
     FM221600 15015G21KT P6SM VCSH OVC015
     FM230000 16008KT P6SM OVC025
     FM230200 16006KT P6SM OVC007
     FM230600 16004KT P6SM OVC004=

USA.gov is the U.S. government's official web portal to all federal, state and local government web resources and services.